Time;durP1;ratioP1;P1;durP2;ratioP2;P2;SDS_P1;SDS_P2;PMS_P1;PMS_P2;Temp;Humidity;BMP_temperature;BMP_pressure;BME280_temperature;BME280_humidity;BME280_pressure;Samples;Min_cycle;Max_cycle;Signal;HPM_P1;HPM_P2
2021/11/07 00:00:19;;;;;;;4.88;3.28;;;;;;;9.33;76.38;101241.88;682823;28;1386;-82
2021/11/07 00:02:37;;;;;;;5.70;3.38;;;;;;;9.50;75.78;101245.50;680247;29;1352;-85
2021/11/07 00:03:40;;;;;;;5.18;2.80;;;;;;;9.45;76.21;101248.94;679411;29;1580;-83
2021/11/07 00:04:46;;;;;;;5.05;3.10;;;;;;;9.27;76.14;101231.38;680472;28;6312;-82
2021/11/07 00:05:20;;;;;;;5.40;3.30;;;;;;;9.23;76.39;101247.88;678268;29;1592;-82
2021/11/07 00:05:45;;;;;;;5.90;3.30;;;;;;;9.10;77.96;101244.25;681136;28;1622;-82
2021/11/07 00:06:20;;;;;;;4.53;3.03;;;;;;;9.10;77.65;101252.94;678370;29;1557;-83
2021/11/07 00:06:50;;;;;;;6.63;3.50;;;;;;;9.16;76.90;101265.19;677800;29;1618;-81
2021/11/07 00:07:25;;;;;;;4.72;3.05;;;;;;;9.18;77.63;101243.47;677246;29;4488;-82
2021/11/07 00:07:56;;;;;;;5.03;3.13;;;;;;;9.20;77.78;101236.53;678003;29;1518;-82
2021/11/07 00:08:33;;;;;;;5.47;3.17;;;;;;;9.13;77.65;101233.84;679490;29;1219;-82
2021/11/07 00:09:25;;;;;;;5.05;3.10;;;;;;;9.14;77.00;101257.34;675898;29;1777;-83
2021/11/07 00:10:06;;;;;;;5.10;3.10;;;;;;;9.04;77.71;101255.47;678469;29;1614;-83
2021/11/07 00:10:51;;;;;;;6.18;3.20;;;;;;;9.23;76.93;101246.13;680384;28;4949;-82
2021/11/07 00:11:44;;;;;;;6.60;3.25;;;;;;;9.16;78.07;101234.75;683287;28;1705;-82
2021/11/07 00:12:17;;;;;;;8.20;3.17;;;;;;;9.32;76.36;101235.78;682225;28;1452;-81
2021/11/07 00:12:42;;;;;;;6.18;3.10;;;;;;;9.31;77.04;101243.59;678437;29;1562;-82
2021/11/07 00:13:37;;;;;;;5.75;3.10;;;;;;;9.40;76.15;101248.03;675062;29;1405;-81
2021/11/07 00:13:53;;;;;;;5.57;3.05;;;;;;;9.45;75.75;101257.63;675544;29;5059;-81
2021/11/07 00:14:13;;;;;;;5.30;3.00;;;;;;;9.48;74.87;101262.88;677893;29;1466;-81
2021/11/07 00:14:37;;;;;;;5.18;3.05;;;;;;;9.41;75.95;101228.91;679848;29;1314;-82
2021/11/07 00:14:58;;;;;;;5.32;3.15;;;;;;;9.37;76.95;101265.41;681632;28;1693;-82
2021/11/07 00:15:19;;;;;;;5.63;3.10;;;;;;;9.30;77.43;101218.34;683470;28;1732;-82
2021/11/07 00:15:40;;;;;;;5.37;3.20;;;;;;;9.25;77.06;101244.41;680850;28;1935;-82
2021/11/07 00:16:10;;;;;;;5.15;3.20;;;;;;;9.34;76.50;101222.75;682154;28;1724;-82
2021/11/07 00:16:34;;;;;;;4.90;3.22;;;;;;;9.46;75.68;101242.88;679756;29;6271;-82
2021/11/07 00:16:56;;;;;;;5.03;3.17;;;;;;;9.44;76.18;101219.38;678364;29;1792;-82
2021/11/07 00:17:19;;;;;;;4.68;3.05;;;;;;;9.38;76.40;101209.72;679204;29;1909;-82
2021/11/07 00:17:46;;;;;;;5.50;3.13;;;;;;;9.46;75.48;101220.25;678406;29;3095;-80
2021/11/07 00:18:10;;;;;;;6.72;2.95;;;;;;;9.52;75.41;101211.59;677643;29;1525;-80
2021/11/07 00:18:37;;;;;;;5.50;3.10;;;;;;;9.43;76.59;101220.22;677955;29;1735;-81
2021/11/07 00:19:11;;;;;;;5.72;3.05;;;;;;;9.44;76.10;101236.75;680534;29;2023;-81
2021/11/07 00:19:38;;;;;;;5.50;3.17;;;;;;;9.44;76.66;101235.03;677670;29;4976;-82
2021/11/07 00:20:07;;;;;;;4.88;2.92;;;;;;;9.45;75.31;101236.75;680588;29;1684;-82
2021/11/07 00:20:31;;;;;;;8.20;3.15;;;;;;;9.46;75.66;101238.53;677743;29;1451;-82
2021/11/07 00:20:57;;;;;;;6.88;3.40;;;;;;;9.52;75.58;101232.47;680309;28;2914;-81
2021/11/07 00:21:46;;;;;;;6.88;2.90;;;;;;;9.42;77.02;101235.88;678545;28;1582;-82
2021/11/07 00:24:19;;;;;;;6.65;3.25;;;;;;;9.33;76.01;101228.81;683434;28;1056;-80
2021/11/07 00:25:16;;;;;;;5.60;3.20;;;;;;;9.35;76.49;101206.25;684338;28;1375;-80
2021/11/07 00:25:47;;;;;;;4.60;2.83;;;;;;;9.47;75.71;101206.34;685004;28;4968;-80
2021/11/07 00:26:32;;;;;;;5.85;2.90;;;;;;;9.47;75.90;101231.56;682635;28;3352;-81
2021/11/07 00:27:04;;;;;;;5.28;2.80;;;;;;;9.40;75.96;101215.00;683474;28;1351;-80
2021/11/07 00:27:55;;;;;;;6.20;2.93;;;;;;;9.36;75.80;101231.47;683716;28;1368;-80
2021/11/07 00:29:01;;;;;;;6.45;3.20;;;;;;;9.37;77.29;101212.31;680642;28;1578;-81
2021/11/07 00:29:28;;;;;;;5.28;3.08;;;;;;;9.26;78.00;101208.75;680046;29;1493;-81
2021/11/07 00:29:59;;;;;;;6.47;3.15;;;;;;;9.36;76.87;101218.44;677678;29;1370;-80
2021/11/07 00:31:31;;;;;;;5.30;2.90;;;;;;;9.47;75.86;101203.75;679861;28;4383;-80
2021/11/07 00:36:16;;;;;;;6.30;3.45;;;;;;;9.23;77.37;101204.38;683544;28;1975;-80
2021/11/07 00:36:31;;;;;;;5.00;2.80;;;;;;;9.22;77.68;101210.47;682703;28;1212;-81
2021/11/07 00:38:02;;;;;;;4.32;2.80;;;;;;;9.48;75.90;101195.03;684083;28;3088;-81
2021/11/07 00:39:18;;;;;;;6.40;3.00;;;;;;;9.55;76.12;101206.38;686634;28;1489;-80
2021/11/07 00:41:23;;;;;;;5.93;2.83;;;;;;;9.27;77.18;101195.72;677997;29;1461;-81
2021/11/07 00:42:47;;;;;;;5.10;3.13;;;;;;;9.51;76.23;101188.97;683322;28;1515;-81
2021/11/07 00:44:03;;;;;;;7.28;3.22;;;;;;;9.23;77.59;101203.50;680753;29;4037;-81
2021/11/07 00:45:22;;;;;;;4.95;3.00;;;;;;;9.20;78.09;101204.34;674679;29;1611;-80
2021/11/07 00:45:57;;;;;;;6.75;2.90;;;;;;;9.49;76.56;101207.22;680067;28;1272;-82
2021/11/07 00:46:50;;;;;;;5.88;2.88;;;;;;;9.46;76.48;101201.97;681615;28;3067;-81
2021/11/07 00:47:22;;;;;;;4.93;2.92;;;;;;;9.40;77.33;101196.72;681562;29;1548;-82
2021/11/07 00:47:50;;;;;;;6.07;3.05;;;;;;;9.30;77.99;101194.88;680654;28;1390;-82
2021/11/07 00:48:49;;;;;;;5.30;2.70;;;;;;;9.29;77.71;101186.19;677783;29;1247;-82
2021/11/07 00:49:13;;;;;;;4.97;2.83;;;;;;;9.23;78.34;101191.34;679595;28;4422;-81
2021/11/07 00:49:36;;;;;;;6.97;2.95;;;;;;;9.16;78.41;101182.56;677515;29;1769;-81
2021/11/07 00:50:06;;;;;;;6.90;3.00;;;;;;;9.24;78.55;101179.19;678913;29;4522;-82
2021/11/07 00:50:56;;;;;;;6.20;2.72;;;;;;;9.27;78.42;101179.19;680133;28;1327;-81
2021/11/07 00:52:07;;;;;;;5.63;2.88;;;;;;;9.34;77.94;101192.28;680993;28;1654;-82
2021/11/07 00:54:42;;;;;;;4.95;2.80;;;;;;;9.26;79.00;101185.28;680290;28;1593;-82
2021/11/07 00:55:16;;;;;;;5.80;2.53;;;;;;;9.20;79.57;101189.56;677627;29;2611;-81
2021/11/07 00:55:43;;;;;;;6.78;2.75;;;;;;;9.13;79.81;101182.56;677508;29;5136;-83
2021/11/07 00:56:44;;;;;;;6.05;2.70;;;;;;;9.16;78.86;101198.22;675145;29;2015;-81
2021/11/07 00:57:55;;;;;;;5.03;2.83;;;;;;;9.14;79.29;101181.69;684330;28;1265;-82
2021/11/07 00:58:31;;;;;;;5.43;2.60;;;;;;;9.22;78.80;101186.09;669633;28;4415;-82
2021/11/07 00:59:34;;;;;;;5.13;2.70;;;;;;;9.33;78.16;101197.50;680222;28;1477;-82
2021/11/07 00:59:59;;;;;;;5.38;2.60;;;;;;;9.39;78.43;101176.69;682993;28;1469;-82
2021/11/07 01:01:05;;;;;;;5.10;2.80;;;;;;;9.24;78.52;101182.66;680702;28;1595;-82
2021/11/07 01:01:28;;;;;;;6.30;2.70;;;;;;;9.29;78.37;101200.94;674851;29;4805;-82
2021/11/07 01:01:59;;;;;;;6.20;2.78;;;;;;;9.28;78.35;101181.81;676748;29;4303;-82
2021/11/07 01:02:28;;;;;;;5.24;2.62;;;;;;;9.18;78.86;101186.09;675921;29;1514;-82
2021/11/07 01:02:52;;;;;;;5.10;2.60;;;;;;;9.32;78.37;101180.13;675523;29;1937;-82
2021/11/07 01:03:16;;;;;;;5.97;2.72;;;;;;;9.36;78.82;101189.72;678154;29;1514;-82
2021/11/07 01:03:36;;;;;;;4.85;2.70;;;;;;;9.32;78.73;101182.75;675439;29;1717;-83
2021/11/07 01:04:00;;;;;;;5.87;2.90;;;;;;;9.30;79.07;101174.00;680961;29;1280;-82
2021/11/07 01:04:29;;;;;;;6.18;2.83;;;;;;;9.20;79.14;101176.53;676407;29;4462;-82
2021/11/07 01:04:53;;;;;;;5.45;2.70;;;;;;;9.21;79.91;101206.13;677045;29;2076;-82
2021/11/07 01:05:24;;;;;;;6.82;2.80;;;;;;;9.13;80.53;101185.16;677522;29;1630;-82
2021/11/07 01:05:45;;;;;;;6.68;2.88;;;;;;;9.08;80.80;101179.00;672523;29;2031;-81
2021/11/07 01:06:09;;;;;;;6.67;2.57;;;;;;;9.07;80.49;101185.13;673025;29;1396;-83
2021/11/07 01:06:35;;;;;;;4.20;2.58;;;;;;;9.16;80.31;101193.00;674552;29;1362;-81
2021/11/07 01:06:55;;;;;;;7.00;2.40;;;;;;;9.33;79.63;101174.03;674301;29;1523;-82
2021/11/07 01:07:20;;;;;;;7.72;2.65;;;;;;;9.42;79.69;101205.44;677358;29;4375;-81
2021/11/07 01:07:41;;;;;;;6.22;2.65;;;;;;;9.40;79.71;101206.25;677769;29;2611;-81
2021/11/07 01:08:02;;;;;;;6.40;2.70;;;;;;;9.29;80.23;101188.78;675543;29;1720;-81
2021/11/07 01:08:22;;;;;;;6.90;2.80;;;;;;;9.26;81.01;101187.88;673348;29;2065;-82
2021/11/07 01:08:43;;;;;;;5.53;2.70;;;;;;;9.33;80.92;101176.63;673558;29;1526;-81
2021/11/07 01:09:04;;;;;;;9.05;2.80;;;;;;;9.38;80.63;101198.44;676088;29;1375;-81
2021/11/07 01:09:34;;;;;;;6.20;2.63;;;;;;;9.27;80.93;101174.84;676073;29;1568;-81
2021/11/07 01:09:56;;;;;;;5.95;2.70;;;;;;;9.21;81.44;101206.13;677893;29;2086;-81
2021/11/07 01:10:17;;;;;;;4.82;2.60;;;;;;;9.10;82.10;101202.53;674039;29;4506;-81
2021/11/07 01:10:38;;;;;;;5.75;2.90;;;;;;;8.97;83.39;101189.38;674605;29;2445;-81
2021/11/07 01:11:00;;;;;;;5.90;3.00;;;;;;;8.94;83.44;101186.69;672575;29;1556;-81
2021/11/07 01:11:21;;;;;;;6.40;2.90;;;;;;;8.95;83.58;101193.66;675116;29;1797;-81
2021/11/07 01:11:41;;;;;;;6.13;2.78;;;;;;;8.90;83.99;101182.31;677848;29;1711;-81
2021/11/07 01:12:02;;;;;;;6.15;2.50;;;;;;;8.86;83.96;101185.75;681380;28;1542;-82
2021/11/07 01:12:24;;;;;;;5.28;2.63;;;;;;;8.80;83.61;101193.50;678780;29;1320;-81
2021/11/07 01:12:45;;;;;;;5.50;2.30;;;;;;;8.79;83.43;101184.84;678116;29;1247;-82
2021/11/07 01:13:09;;;;;;;6.85;2.60;;;;;;;8.91;84.60;101201.47;677509;29;4382;-81
2021/11/07 01:13:30;;;;;;;6.07;2.80;;;;;;;9.08;83.03;101199.03;678603;29;2875;-81
2021/11/07 01:13:51;;;;;;;5.10;2.80;;;;;;;9.19;82.21;101197.38;675473;29;4965;-83
2021/11/07 01:14:15;;;;;;;4.53;2.75;;;;;;;9.11;81.80;101184.28;677390;29;1370;-81
2021/11/07 01:14:36;;;;;;;5.60;2.70;;;;;;;9.11;82.93;101205.16;676331;29;1268;-81
2021/11/07 01:14:58;;;;;;;4.70;2.47;;;;;;;9.17;82.75;101202.59;676455;29;1117;-81
2021/11/07 01:15:19;;;;;;;6.40;2.70;;;;;;;9.12;82.22;101185.16;678415;29;1588;-81
2021/11/07 01:15:40;;;;;;;5.80;2.70;;;;;;;9.17;82.98;101184.31;678694;28;1946;-81
2021/11/07 01:16:01;;;;;;;5.32;2.63;;;;;;;9.14;82.40;101207.78;679000;29;1431;-81
2021/11/07 01:16:24;;;;;;;5.82;2.70;;;;;;;9.09;82.22;101201.63;683396;28;4403;-82
2021/11/07 01:16:54;;;;;;;6.95;2.70;;;;;;;9.04;82.67;101203.31;683636;28;1826;-81
2021/11/07 01:17:14;;;;;;;6.40;2.70;;;;;;;8.91;84.04;101211.88;683506;28;3018;-81
2021/11/07 01:17:37;;;;;;;5.90;2.65;;;;;;;8.88;83.68;101191.00;680929;28;1934;-81
2021/11/07 01:17:58;;;;;;;5.18;2.88;;;;;;;8.88;83.58;101177.97;681116;28;1402;-82
2021/11/07 01:18:19;;;;;;;4.70;2.60;;;;;;;8.84;83.38;101185.72;678292;29;1458;-82
2021/11/07 01:18:39;;;;;;;6.93;2.70;;;;;;;8.86;84.17;101184.03;674873;29;1773;-81
2021/11/07 01:19:01;;;;;;;6.18;2.70;;;;;;;8.98;83.41;101213.69;675435;29;1356;-81
2021/11/07 01:19:22;;;;;;;5.82;2.50;;;;;;;9.11;83.20;101189.50;665414;29;4419;-82
2021/11/07 01:19:54;;;;;;;5.17;2.30;;;;;;;9.22;81.73;101180.88;672808;29;2311;-82
2021/11/07 01:20:17;;;;;;;5.20;2.30;;;;;;;9.20;81.57;101175.66;677301;29;1579;-82
2021/11/07 01:20:37;;;;;;;5.07;2.55;;;;;;;9.20;82.08;101184.34;675715;29;1904;-81
2021/11/07 01:20:58;;;;;;;5.13;2.33;;;;;;;9.15;82.15;101200.81;672618;29;1398;-81
2021/11/07 01:21:19;;;;;;;5.07;2.42;;;;;;;9.19;81.66;101186.94;672071;29;1314;-81
2021/11/07 01:21:42;;;;;;;5.35;2.50;;;;;;;9.11;82.03;101201.66;675211;29;1418;-82
2021/11/07 01:22:06;;;;;;;4.93;2.30;;;;;;;9.04;82.40;101200.72;679073;29;1592;-82
2021/11/07 01:22:41;;;;;;;4.78;2.42;;;;;;;8.96;83.13;101195.44;676289;29;4714;-82
2021/11/07 01:23:37;;;;;;;5.22;2.30;;;;;;;8.95;84.03;101196.28;677085;29;1719;-82
2021/11/07 01:24:06;;;;;;;5.82;2.50;;;;;;;9.15;83.72;101206.94;677689;29;1432;-82
2021/11/07 01:24:51;;;;;;;5.63;2.40;;;;;;;9.29;82.06;101198.34;683078;28;1468;-82
2021/11/07 01:25:19;;;;;;;5.90;2.30;;;;;;;9.23;82.14;101182.66;682276;28;4412;-82
2021/11/07 01:25:48;;;;;;;6.78;2.22;;;;;;;9.18;82.07;101196.53;682735;28;3674;-82
2021/11/07 01:26:18;;;;;;;4.30;2.20;;;;;;;9.08;83.32;101199.88;680298;29;1598;-82
2021/11/07 01:26:43;;;;;;;4.68;2.40;;;;;;;9.29;82.16;101188.78;680496;29;1487;-83
2021/11/07 01:27:29;;;;;;;4.47;2.35;;;;;;;9.26;82.04;101167.00;675124;29;1380;-83
2021/11/07 01:27:51;;;;;;;5.38;2.30;;;;;;;9.10;83.41;101192.09;673370;29;1253;-82
2021/11/07 01:28:14;;;;;;;5.55;2.20;;;;;;;9.24;82.82;101184.41;674937;29;4399;-82
2021/11/07 01:28:41;;;;;;;5.90;2.20;;;;;;;9.31;82.57;101162.72;674991;29;3653;-81
2021/11/07 01:29:10;;;;;;;5.07;2.20;;;;;;;9.34;81.59;101171.41;676885;29;1794;-81
2021/11/07 01:29:31;;;;;;;5.53;2.60;;;;;;;9.32;81.96;101174.91;675709;29;1584;-80
2021/11/07 01:29:57;;;;;;;4.50;2.20;;;;;;;9.20;83.10;101183.47;678067;29;1625;-81
2021/11/07 01:30:21;;;;;;;5.15;2.20;;;;;;;9.23;83.17;101164.38;673807;29;1772;-81
2021/11/07 01:30:50;;;;;;;4.45;2.35;;;;;;;9.15;82.91;101175.63;674329;29;1746;-80
2021/11/07 01:31:11;;;;;;;5.25;2.30;;;;;;;9.06;83.61;101161.63;676510;29;4362;-80
2021/11/07 01:31:33;;;;;;;6.28;2.40;;;;;;;9.18;83.47;101154.78;674494;29;2675;-80
2021/11/07 01:31:56;;;;;;;5.95;2.58;;;;;;;9.26;82.90;101159.19;678371;29;1895;-81
2021/11/07 01:32:20;;;;;;;5.28;2.20;;;;;;;9.21;82.71;101164.38;678544;29;1938;-82
2021/11/07 01:32:45;;;;;;;5.82;2.08;;;;;;;9.20;82.86;101165.22;677282;29;1617;-81
2021/11/07 01:33:12;;;;;;;4.63;2.13;;;;;;;9.17;83.21;101168.69;677127;29;1467;-80
2021/11/07 01:33:35;;;;;;;5.85;2.15;;;;;;;9.18;82.93;101165.22;677851;29;1452;-80
2021/11/07 01:33:58;;;;;;;7.47;2.42;;;;;;;9.12;83.44;101167.75;674946;29;1491;-81
2021/11/07 01:34:36;;;;;;;5.95;2.30;;;;;;;9.02;84.45;101160.72;677503;29;4357;-81
2021/11/07 01:35:05;;;;;;;5.78;2.33;;;;;;;8.94;84.39;101164.97;678237;28;1557;-80
2021/11/07 01:36:35;;;;;;;4.80;2.25;;;;;;;9.32;83.17;101156.66;682027;28;1253;-80
2021/11/07 01:37:08;;;;;;;4.95;2.30;;;;;;;9.14;83.79;101173.00;681529;28;1379;-81
2021/11/07 01:37:53;;;;;;;6.22;2.30;;;;;;;9.01;84.31;101182.44;677570;29;4853;-82
2021/11/07 01:38:17;;;;;;;5.35;2.33;;;;;;;9.01;85.18;101187.66;679514;28;1731;-80
2021/11/07 01:38:48;;;;;;;4.32;2.30;;;;;;;8.97;85.39;101165.00;677224;29;3451;-81
2021/11/07 01:39:18;;;;;;;5.18;2.33;;;;;;;8.94;85.21;101165.84;675045;29;1423;-81
2021/11/07 01:40:14;;;;;;;5.20;2.20;;;;;;;9.15;84.87;101154.75;674114;29;5934;-80
2021/11/07 01:40:43;;;;;;;7.20;2.28;;;;;;;9.10;85.76;101171.22;677962;29;1364;-80
2021/11/07 01:41:29;;;;;;;5.57;2.40;;;;;;;9.24;84.76;101150.50;675420;29;2144;-80
2021/11/07 01:42:37;;;;;;;5.72;2.38;;;;;;;9.13;85.21;101151.25;677916;29;1884;-83
2021/11/07 01:42:58;;;;;;;6.15;2.45;;;;;;;9.11;84.68;101149.47;679851;29;1571;-83
2021/11/07 01:43:19;;;;;;;6.43;2.83;;;;;;;9.05;85.25;101147.69;680055;28;4455;-82
2021/11/07 01:43:40;;;;;;;5.60;2.83;;;;;;;9.15;84.99;101146.94;682148;28;1212;-82
2021/11/07 01:44:15;;;;;;;5.13;2.50;;;;;;;9.31;84.62;101160.97;681382;28;1365;-81
2021/11/07 01:44:58;;;;;;;6.15;3.10;;;;;;;9.40;83.98;101139.31;679879;28;3767;-80
2021/11/07 01:45:26;;;;;;;6.35;2.42;;;;;;;9.41;83.75;101141.03;678004;29;1447;-80
2021/11/07 01:46:03;;;;;;;6.63;2.40;;;;;;;9.43;83.41;101154.09;682785;28;1261;-80
2021/11/07 01:46:29;;;;;;;5.50;2.35;;;;;;;9.41;83.25;101140.19;676912;29;4362;-81
2021/11/07 01:46:53;;;;;;;5.57;2.30;;;;;;;9.41;83.61;101143.66;677675;29;1607;-81
2021/11/07 01:47:17;;;;;;;5.03;2.28;;;;;;;9.29;84.52;101151.38;678376;29;1157;-81
2021/11/07 01:47:49;;;;;;;5.40;2.40;;;;;;;9.35;84.73;101146.22;681161;28;1230;-81
2021/11/07 01:48:12;;;;;;;6.80;2.55;;;;;;;9.25;85.38;101144.38;677939;29;1253;-80
2021/11/07 01:48:41;;;;;;;6.38;2.72;;;;;;;9.14;86.04;101137.34;675393;29;1530;-79
2021/11/07 01:49:10;;;;;;;7.43;2.47;;;;;;;9.28;85.12;101139.22;675354;29;1733;-79
2021/11/07 01:49:37;;;;;;;5.53;2.42;;;;;;;9.35;84.30;101146.22;674217;29;5033;-81
2021/11/07 01:50:01;;;;;;;6.10;2.50;;;;;;;9.31;84.31;101157.50;678236;29;1452;-80
2021/11/07 01:50:25;;;;;;;5.60;2.30;;;;;;;9.22;85.22;101136.53;679855;28;2334;-82
2021/11/07 01:50:57;;;;;;;6.10;2.40;;;;;;;9.18;85.17;101133.91;677981;29;3533;-80
2021/11/07 01:51:18;;;;;;;5.93;2.50;;;;;;;9.19;85.27;101145.22;680512;29;1212;-81
2021/11/07 01:51:46;;;;;;;5.87;2.43;;;;;;;9.16;85.03;101138.22;678307;28;1858;-81
2021/11/07 01:52:08;;;;;;;5.43;2.53;;;;;;;9.33;84.95;101134.88;676868;29;4371;-80
2021/11/07 01:52:29;;;;;;;6.55;2.40;;;;;;;9.46;84.14;101133.28;680703;28;1441;-81
2021/11/07 01:53:07;;;;;;;6.78;2.40;;;;;;;9.42;83.99;101137.56;678122;29;1949;-80
2021/11/07 01:53:53;;;;;;;7.50;2.53;;;;;;;9.29;84.99;101131.41;674270;29;1893;-81
2021/11/07 01:54:27;;;;;;;7.35;2.88;;;;;;;9.28;85.19;101131.38;674337;29;1691;-81
2021/11/07 01:55:03;;;;;;;6.15;2.78;;;;;;;9.22;85.46;101139.16;678884;28;1319;-81
2021/11/07 01:55:24;;;;;;;7.65;2.70;;;;;;;9.20;85.21;101134.78;680488;28;4313;-83
2021/11/07 01:55:44;;;;;;;6.07;2.57;;;;;;;9.15;85.80;101139.09;683159;28;1926;-82
2021/11/07 01:56:15;;;;;;;5.38;2.50;;;;;;;9.15;85.97;101131.28;677245;28;1528;-82
2021/11/07 01:56:42;;;;;;;8.05;2.75;;;;;;;9.19;86.78;101134.78;677628;29;2258;-82
2021/11/07 01:57:28;;;;;;;7.43;2.80;;;;;;;9.23;86.23;101128.72;677823;29;1686;-80
2021/11/07 01:57:49;;;;;;;5.28;2.70;;;;;;;9.32;86.04;101146.22;678042;28;1553;-80
2021/11/07 01:58:10;;;;;;;7.30;2.60;;;;;;;9.28;86.15;101126.16;680991;28;4370;-80
2021/11/07 01:58:32;;;;;;;7.18;2.67;;;;;;;9.19;86.73;101134.78;681705;28;1252;-82
2021/11/07 01:58:52;;;;;;;5.78;2.60;;;;;;;9.05;87.34;101137.25;680180;28;1282;-81
2021/11/07 01:59:13;;;;;;;6.57;2.50;;;;;;;8.98;87.71;101135.47;678067;29;3441;-82
2021/11/07 01:59:46;;;;;;;4.72;2.47;;;;;;;9.10;87.78;101140.78;676046;29;3719;-81
2021/11/07 02:00:18;;;;;;;4.95;2.47;;;;;;;9.20;86.56;101132.19;678272;29;1256;-82
2021/11/07 02:00:39;;;;;;;5.15;2.60;;;;;;;9.10;86.66;101127.75;677393;29;1343;-80
2021/11/07 02:01:00;;;;;;;6.35;3.00;;;;;;;9.09;87.15;101170.34;678089;29;1574;-81
2021/11/07 02:01:24;;;;;;;6.72;2.75;;;;;;;9.01;87.52;101141.59;676718;28;4421;-81
2021/11/07 02:01:50;;;;;;;5.53;2.60;;;;;;;8.95;87.90;101151.09;674767;29;1581;-81
2021/11/07 02:02:13;;;;;;;5.50;2.50;;;;;;;8.92;88.38;101125.84;675432;29;3491;-80
2021/11/07 02:02:36;;;;;;;5.45;2.60;;;;;;;8.86;88.74;101139.72;672367;29;4004;-80
2021/11/07 02:02:56;;;;;;;6.07;2.92;;;;;;;8.83;88.64;101126.66;675428;29;1781;-81
2021/11/07 02:03:18;;;;;;;6.10;2.83;;;;;;;8.78;89.45;101148.31;675750;29;1711;-81
2021/11/07 02:03:39;;;;;;;5.85;2.83;;;;;;;8.71;90.53;101121.31;677816;29;1445;-81
2021/11/07 02:04:00;;;;;;;7.00;3.00;;;;;;;8.73;89.80;101121.31;678725;29;1363;-81
2021/11/07 02:04:20;;;;;;;6.47;2.93;;;;;;;8.71;89.86;101118.72;675422;29;4400;-81
2021/11/07 02:04:45;;;;;;;7.33;2.80;;;;;;;8.71;89.84;101115.19;681049;29;1416;-81
2021/11/07 02:05:07;;;;;;;7.47;3.00;;;;;;;8.79;89.25;101122.25;680216;29;2396;-81
2021/11/07 02:05:27;;;;;;;5.47;2.85;;;;;;;8.80;88.67;101142.25;681278;29;4042;-81
2021/11/07 02:05:48;;;;;;;5.13;2.53;;;;;;;8.79;89.36;101114.44;678069;29;1640;-81
2021/11/07 02:06:11;;;;;;;6.63;2.80;;;;;;;8.80;89.48;101137.03;679621;29;2057;-81
2021/11/07 02:06:31;;;;;;;6.10;2.67;;;;;;;8.99;88.24;101137.22;678627;29;1705;-81
2021/11/07 02:06:52;;;;;;;6.40;2.67;;;;;;;9.03;87.95;101115.53;673583;29;1371;-80
2021/11/07 02:07:13;;;;;;;6.67;2.70;;;;;;;9.17;87.07;101120.84;673805;29;4402;-81
2021/11/07 02:07:39;;;;;;;7.90;2.80;;;;;;;9.14;86.87;101098.22;675503;29;1198;-80
2021/11/07 02:08:03;;;;;;;5.25;2.80;;;;;;;9.06;87.47;101112.94;674647;29;2625;-81
2021/11/07 02:08:23;;;;;;;4.82;2.65;;;;;;;9.14;86.83;101110.41;681200;28;3906;-80
2021/11/07 02:08:47;;;;;;;5.90;2.80;;;;;;;9.16;86.74;101106.91;680045;29;1428;-82
2021/11/07 02:09:08;;;;;;;5.38;2.83;;;;;;;9.11;86.88;101103.44;678186;29;1470;-81
2021/11/07 02:09:29;;;;;;;5.38;2.63;;;;;;;9.07;87.21;101098.16;679545;29;1571;-81
2021/11/07 02:09:50;;;;;;;6.47;2.73;;;;;;;9.05;86.89;101111.19;676133;29;1336;-82
2021/11/07 02:10:13;;;;;;;4.75;2.60;;;;;;;9.02;87.09;101129.41;675300;29;4444;-82
2021/11/07 02:10:35;;;;;;;5.85;2.60;;;;;;;9.07;86.90;101119.00;678212;29;1648;-81
2021/11/07 02:10:57;;;;;;;6.55;2.95;;;;;;;9.13;86.56;101098.22;677985;29;3468;-81
2021/11/07 02:11:18;;;;;;;5.90;2.75;;;;;;;9.05;86.81;101092.06;678921;28;1401;-82
2021/11/07 02:11:39;;;;;;;6.22;3.17;;;;;;;9.04;86.95;101106.81;677084;29;2508;-82
2021/11/07 02:12:04;;;;;;;6.63;2.88;;;;;;;8.96;87.60;101104.16;678765;29;1750;-82
2021/11/07 02:12:24;;;;;;;6.22;2.78;;;;;;;8.92;88.09;101098.91;678109;29;1521;-81
2021/11/07 02:12:46;;;;;;;5.10;2.60;;;;;;;8.96;87.55;101095.47;679397;29;1469;-81
2021/11/07 02:13:07;;;;;;;5.60;2.85;;;;;;;8.88;88.35;101103.22;675026;29;4385;-82
2021/11/07 02:13:28;;;;;;;6.15;2.65;;;;;;;8.82;88.53;101098.81;672669;29;3048;-81
2021/11/07 02:13:50;;;;;;;5.30;2.72;;;;;;;8.80;88.56;101097.91;671336;29;1857;-81
2021/11/07 02:14:10;;;;;;;5.95;2.70;;;;;;;8.76;88.80;101095.28;677874;29;4081;-82
2021/11/07 02:14:32;;;;;;;5.15;2.50;;;;;;;8.91;89.36;101086.72;677933;29;4015;-81
2021/11/07 02:14:52;;;;;;;5.45;2.60;;;;;;;8.95;88.22;101083.28;677717;29;1611;-81
2021/11/07 02:15:16;;;;;;;6.30;2.58;;;;;;;8.91;87.84;101097.16;680259;29;1399;-82
2021/11/07 02:15:37;;;;;;;5.80;2.58;;;;;;;8.89;88.43;101091.03;680921;29;1916;-81
2021/11/07 02:15:57;;;;;;;6.75;2.75;;;;;;;8.91;88.42;101085.00;680134;28;2006;-81
2021/11/07 02:16:19;;;;;;;8.57;2.70;;;;;;;8.95;87.92;101088.50;674809;28;4401;-81
2021/11/07 02:16:43;;;;;;;6.72;2.75;;;;;;;8.93;87.87;101085.00;682873;28;1607;-82
2021/11/07 02:17:07;;;;;;;6.63;2.60;;;;;;;8.88;88.32;101081.50;683093;28;4029;-83
2021/11/07 02:17:27;;;;;;;6.55;2.58;;;;;;;8.89;88.29;101088.44;680733;28;4473;-81
2021/11/07 02:17:49;;;;;;;7.18;2.80;;;;;;;8.84;88.31;101076.22;679612;28;1743;-82
2021/11/07 02:18:10;;;;;;;6.13;2.50;;;;;;;8.80;88.34;101079.66;681616;28;1474;-82
2021/11/07 02:18:31;;;;;;;5.10;2.70;;;;;;;8.77;88.80;101084.00;681022;29;1900;-81
2021/11/07 02:18:52;;;;;;;7.20;3.00;;;;;;;8.96;88.54;101085.91;680271;28;1410;-82
2021/11/07 02:19:15;;;;;;;6.80;2.88;;;;;;;8.93;87.73;101101.53;677575;29;4369;-82
2021/11/07 02:19:36;;;;;;;5.57;2.67;;;;;;;8.89;88.30;101080.63;678477;29;1812;-81
2021/11/07 02:20:03;;;;;;;6.80;2.90;;;;;;;8.96;87.91;101082.44;677728;29;3799;-83
2021/11/07 02:20:24;;;;;;;8.65;2.92;;;;;;;8.99;88.26;101087.69;677354;29;3931;-82
2021/11/07 02:20:46;;;;;;;7.28;2.67;;;;;;;9.07;87.45;101099.03;677098;29;2005;-82
2021/11/07 02:21:07;;;;;;;6.63;2.80;;;;;;;9.06;87.19;101084.25;676190;29;1580;-83
2021/11/07 02:21:27;;;;;;;5.63;2.60;;;;;;;8.99;87.74;101083.31;676216;29;1399;-83
2021/11/07 02:21:48;;;;;;;5.47;2.70;;;;;;;8.97;87.88;101092.88;678498;29;1407;-83
2021/11/07 02:22:09;;;;;;;4.78;2.65;;;;;;;8.91;87.55;101103.25;677848;29;4488;-83
2021/11/07 02:22:30;;;;;;;7.07;2.90;;;;;;;8.85;88.25;101088.41;676170;29;1365;-83
2021/11/07 02:22:51;;;;;;;7.70;3.05;;;;;;;8.84;88.25;101097.09;673768;29;4144;-83
2021/11/07 02:23:21;;;;;;;6.22;3.03;;;;;;;8.83;88.05;101081.44;675472;29;2979;-83
2021/11/07 02:23:42;;;;;;;5.65;2.90;;;;;;;8.81;88.62;101093.59;676332;29;1627;-83
2021/11/07 02:24:03;;;;;;;6.57;2.78;;;;;;;8.92;88.02;101088.50;677774;29;1452;-83
2021/11/07 02:24:24;;;;;;;4.37;2.77;;;;;;;8.91;88.55;101089.34;678158;29;1907;-82
2021/11/07 02:24:45;;;;;;;5.57;3.05;;;;;;;8.96;87.87;101083.31;680707;29;1695;-83
2021/11/07 02:25:07;;;;;;;5.90;2.72;;;;;;;9.07;87.60;101093.84;680159;28;4517;-82
2021/11/07 02:25:27;;;;;;;6.50;2.70;;;;;;;9.18;86.86;101097.38;680588;29;1380;-82
2021/11/07 02:25:52;;;;;;;5.93;2.88;;;;;;;9.20;86.83;101087.81;675065;29;2489;-82
2021/11/07 02:26:21;;;;;;;6.72;2.90;;;;;;;9.11;87.12;101089.50;673538;29;4292;-82
2021/11/07 02:26:48;;;;;;;5.20;2.80;;;;;;;9.12;87.46;101088.63;675746;29;1561;-81
2021/11/07 02:27:10;;;;;;;4.90;2.63;;;;;;;9.00;87.82;101074.66;676534;29;1612;-82
2021/11/07 02:27:31;;;;;;;6.22;2.72;;;;;;;9.01;87.54;101088.53;680878;28;1966;-82
2021/11/07 02:27:52;;;;;;;7.00;2.65;;;;;;;9.04;87.91;101127.69;678988;29;1566;-82
2021/11/07 02:28:28;;;;;;;6.63;2.83;;;;;;;8.93;88.56;101085.00;678038;28;4344;-81
2021/11/07 02:28:49;;;;;;;7.03;2.60;;;;;;;9.02;88.14;101112.03;678458;29;4011;-82
2021/11/07 02:29:10;;;;;;;6.80;2.70;;;;;;;9.12;87.42;101084.28;680395;29;1612;-82
2021/11/07 02:29:33;;;;;;;6.05;2.85;;;;;;;9.11;87.25;101105.13;677644;28;1709;-82
2021/11/07 02:29:53;;;;;;;6.57;3.00;;;;;;;9.04;87.82;101093.78;677486;29;3846;-82
2021/11/07 02:30:15;;;;;;;6.00;2.90;;;;;;;8.91;88.63;101086.72;680592;29;1360;-81
2021/11/07 02:30:38;;;;;;;6.15;2.78;;;;;;;8.89;88.63;101094.53;679088;29;1955;-81
2021/11/07 02:31:00;;;;;;;7.22;3.00;;;;;;;8.91;88.51;101115.41;678213;29;1424;-81
2021/11/07 02:31:20;;;;;;;6.53;3.03;;;;;;;8.89;88.84;101107.56;676592;29;4370;-81
2021/11/07 02:31:41;;;;;;;6.03;3.00;;;;;;;8.82;88.74;101098.81;672228;29;1540;-82
2021/11/07 02:32:03;;;;;;;7.15;2.90;;;;;;;8.80;89.22;101100.53;672244;29;4045;-81